createdAt,value
2017-06-22T00:01:05.969Z,0
2017-06-22T00:03:30.665Z,0
2017-06-22T00:05:55.359Z,0
2017-06-22T00:08:03.093Z,0
2017-06-22T00:10:19.378Z,0
2017-06-22T00:12:44.043Z,0
2017-06-22T00:17:10.769Z,0
2017-06-22T00:23:13.893Z,0
2017-06-22T00:25:38.616Z,0
2017-06-22T00:28:03.328Z,0
2017-06-22T00:30:28.026Z,0
2017-06-22T00:32:44.230Z,0
2017-06-22T00:35:08.913Z,0
2017-06-22T00:37:33.506Z,0
2017-06-22T00:39:58.207Z,0
2017-06-22T00:42:22.897Z,0
2017-06-22T00:44:39.130Z,0
2017-06-22T00:47:03.805Z,0
2017-06-22T00:49:14.501Z,0
2017-06-22T00:51:30.677Z,0
2017-06-22T00:53:46.837Z,0
2017-06-22T00:56:11.448Z,0
2017-06-22T00:58:36.147Z,0
2017-06-22T01:01:00.732Z,0
2017-06-22T01:03:25.327Z,0
2017-06-22T01:05:41.519Z,0
2017-06-22T01:10:08.132Z,0
2017-06-22T01:12:32.770Z,0
2017-06-22T01:14:43.331Z,0
2017-06-22T01:17:07.930Z,0
2017-06-22T01:19:32.519Z,0
2017-06-22T01:21:57.099Z,0
2017-06-22T01:24:13.197Z,0
2017-06-22T01:26:37.803Z,0
2017-06-22T01:29:02.310Z,0
2017-06-22T01:31:26.882Z,0
2017-06-22T01:33:43.012Z,0
2017-06-22T01:36:07.563Z,0
2017-06-22T01:38:32.159Z,0
2017-06-22T01:40:48.245Z,0
2017-06-22T01:43:12.845Z,0
2017-06-22T01:45:37.439Z,0
2017-06-22T01:47:53.579Z,0
2017-06-22T01:50:18.127Z,0
2017-06-22T01:52:42.626Z,0
2017-06-22T01:55:07.213Z,0
2017-06-22T01:57:31.712Z,0
2017-06-22T01:59:56.306Z,0
2017-06-22T02:04:22.895Z,0
2017-06-22T02:06:47.446Z,0
2017-06-22T02:11:14.170Z,0
2017-06-22T02:13:38.705Z,0
2017-06-22T02:16:03.299Z,0
2017-06-22T02:18:27.891Z,0
2017-06-22T02:20:52.488Z,0
2017-06-22T02:23:08.622Z,0
2017-06-22T02:25:24.677Z,0
2017-06-22T02:27:49.276Z,0
2017-06-22T02:30:13.874Z,0
2017-06-22T02:34:40.429Z,0
2017-06-22T02:37:05.016Z,0
2017-06-22T02:39:29.603Z,0
2017-06-22T02:41:54.201Z,0
2017-06-22T02:44:18.791Z,0
2017-06-22T02:46:43.279Z,0
2017-06-22T02:48:50.896Z,4
2017-06-22T02:51:15.369Z,0
2017-06-22T02:53:39.856Z,4
2017-06-22T02:56:04.348Z,4
2017-06-22T02:58:28.846Z,8
2017-06-22T03:00:39.382Z,8
2017-06-22T03:03:03.894Z,12
2017-06-22T03:05:19.885Z,16
2017-06-22T03:07:35.883Z,20
2017-06-22T03:10:00.371Z,28
2017-06-22T03:12:24.847Z,36
2017-06-22T03:14:49.347Z,48
2017-06-22T03:17:13.845Z,56
2017-06-22T03:19:38.332Z,68
2017-06-22T03:22:02.826Z,84
2017-06-22T03:24:27.313Z,104
2017-06-22T03:26:51.807Z,124
2017-06-22T03:29:16.309Z,148
2017-06-22T03:33:42.808Z,196
2017-06-22T03:36:07.360Z,228
2017-06-22T03:38:31.830Z,264
2017-06-22T03:40:56.346Z,300
2017-06-22T03:43:20.826Z,344
2017-06-22T03:45:45.330Z,392
2017-06-22T03:48:09.821Z,444
2017-06-22T03:50:25.872Z,492
2017-06-22T03:52:50.403Z,552
2017-06-22T03:55:06.386Z,608
2017-06-22T03:57:30.890Z,676
2017-06-22T03:59:55.381Z,744
2017-06-22T04:02:19.871Z,816
2017-06-22T04:04:44.360Z,884
2017-06-22T04:07:08.983Z,956
2017-06-22T04:09:33.557Z,1032
2017-06-22T04:11:58.192Z,1116
2017-06-22T04:14:14.287Z,1204
2017-06-22T04:16:38.838Z,1296
2017-06-22T04:19:03.446Z,1408
2017-06-22T04:21:28.031Z,1672
2017-06-22T04:23:52.636Z,2084
2017-06-22T04:26:17.245Z,2204
2017-06-22T04:28:41.969Z,2316
2017-06-22T04:31:06.795Z,2592
2017-06-22T04:33:31.713Z,2760
2017-06-22T04:35:33.929Z,2884
2017-06-22T04:37:59.153Z,3072
2017-06-22T04:40:24.485Z,3268
2017-06-22T04:42:32.799Z,3424
2017-06-22T04:46:52.007Z,3708
2017-06-22T04:49:17.707Z,3900
2017-06-22T04:51:44.447Z,4068
2017-06-22T04:54:01.747Z,4236
2017-06-22T04:58:22.469Z,4552
2017-06-22T05:00:48.483Z,4732
2017-06-22T05:03:06.083Z,4892
2017-06-22T05:07:26.165Z,5196
2017-06-22T05:09:44.039Z,5356
2017-06-22T05:12:10.489Z,5568
2017-06-22T05:16:39.580Z,5968
2017-06-22T05:23:11.357Z,6564
2017-06-22T05:25:38.240Z,6836
2017-06-22T05:30:07.799Z,7428
2017-06-22T05:32:34.856Z,7752
2017-06-22T05:35:01.925Z,8136
2017-06-22T05:37:11.853Z,8404
2017-06-22T05:39:39.046Z,8820
2017-06-22T05:41:57.718Z,9168
2017-06-22T05:44:25.086Z,9528
2017-06-22T05:46:43.838Z,9824
2017-06-22T05:51:13.981Z,10356
2017-06-22T05:55:44.234Z,10764
2017-06-22T05:58:11.878Z,11032
2017-06-22T06:02:42.398Z,11324
2017-06-22T06:05:10.227Z,11664
2017-06-22T06:07:38.119Z,12244
2017-06-22T06:10:05.981Z,12664
2017-06-22T06:12:33.847Z,13212
2017-06-22T06:15:01.729Z,13956
2017-06-22T06:17:30.749Z,15136
2017-06-22T06:19:58.743Z,16480
2017-06-22T06:22:27.735Z,18304
2017-06-22T06:26:50.032Z,21920
2017-06-22T06:29:18.217Z,24288
2017-06-22T06:31:48.438Z,25408
2017-06-22T06:34:16.611Z,26848
2017-06-22T06:36:45.812Z,25472
2017-06-22T06:39:13.980Z,13232
2017-06-22T06:41:42.034Z,10632
2017-06-22T06:46:13.010Z,10724
2017-06-22T06:48:40.946Z,10868
2017-06-22T06:51:08.767Z,10916
2017-06-22T06:53:36.507Z,10768
2017-06-22T06:56:04.027Z,10816
2017-06-22T06:58:31.351Z,10804
2017-06-22T07:00:58.577Z,10964
2017-06-22T07:03:25.701Z,11188
2017-06-22T07:05:52.622Z,11004
2017-06-22T07:08:19.555Z,10712
2017-06-22T07:10:46.403Z,9704
2017-06-22T07:13:04.637Z,10936
2017-06-22T07:15:22.749Z,12556
2017-06-22T07:17:49.386Z,13716
2017-06-22T07:20:07.423Z,15052
2017-06-22T07:22:25.469Z,16128
2017-06-22T07:24:36.668Z,16160
2017-06-22T07:27:03.402Z,16128
2017-06-22T07:29:30.151Z,17984
2017-06-22T07:31:56.884Z,18752
2017-06-22T07:34:23.645Z,19008
2017-06-22T07:36:50.347Z,16064
2017-06-22T07:39:17.078Z,13980
2017-06-22T07:41:43.834Z,13984
2017-06-22T07:44:10.606Z,11548
2017-06-22T07:46:37.339Z,12936
2017-06-22T07:51:06.166Z,12460
2017-06-22T07:53:32.960Z,12980
2017-06-22T07:58:01.818Z,11824
2017-06-22T08:00:28.594Z,12448
2017-06-22T08:02:55.472Z,12268
2017-06-22T08:05:13.705Z,12032
2017-06-22T08:07:40.554Z,10828
2017-06-22T08:10:07.406Z,11256
2017-06-22T08:12:34.332Z,11272
2017-06-22T08:15:01.208Z,11136
2017-06-22T08:17:28.141Z,11308
2017-06-22T08:19:55.107Z,11300
2017-06-22T08:22:05.912Z,11240
2017-06-22T08:24:32.894Z,10948
2017-06-22T08:26:59.862Z,11068
2017-06-22T08:29:31.966Z,10924
2017-06-22T08:33:34.712Z,11200
2017-06-22T08:36:03.668Z,11268
2017-06-22T08:38:30.659Z,11416
2017-06-22T08:41:14.398Z,11408
2017-06-22T08:43:44.327Z,11264
2017-06-22T08:47:41.339Z,11344
2017-06-22T08:50:23.970Z,11320
2017-06-22T08:52:43.235Z,11248
2017-06-22T08:55:24.939Z,10932
2017-06-22T08:57:58.454Z,10496
2017-06-22T09:00:25.230Z,10424
2017-06-22T09:02:51.969Z,10216
2017-06-22T09:04:54.622Z,10256
2017-06-22T09:07:21.426Z,10240
2017-06-22T09:09:48.208Z,10192
2017-06-22T09:12:15.047Z,10048
2017-06-22T09:14:33.414Z,9832
2017-06-22T09:16:44.676Z,9840
2017-06-22T09:19:11.488Z,9896
2017-06-22T09:21:38.255Z,9880
2017-06-22T09:24:05.209Z,9360
2017-06-22T09:26:23.628Z,9212
2017-06-22T09:28:50.215Z,9368
2017-06-22T09:31:16.871Z,9168
2017-06-22T09:33:35.007Z,8772
2017-06-22T09:36:01.666Z,8416
2017-06-22T09:38:13.213Z,8684
2017-06-22T09:40:39.979Z,8588
2017-06-22T09:42:58.341Z,8900
2017-06-22T09:45:25.144Z,9000
2017-06-22T09:49:46.973Z,8976
2017-06-22T09:52:13.659Z,9004
2017-06-22T09:54:40.447Z,8764
2017-06-22T09:56:58.602Z,8456
2017-06-22T09:59:17.468Z,8416
2017-06-22T10:01:44.098Z,8140
2017-06-22T10:05:47.180Z,7792
2017-06-22T10:08:13.714Z,7704
2017-06-22T10:10:40.220Z,7380
2017-06-22T10:12:59.167Z,7304
2017-06-22T10:15:25.665Z,7208
2017-06-22T10:19:54.918Z,7004
2017-06-22T10:22:13.852Z,6896
2017-06-22T10:24:39.480Z,6808
2017-06-22T10:27:05.923Z,6684
2017-06-22T10:29:32.102Z,6612
2017-06-22T10:31:58.321Z,6564
2017-06-22T10:34:15.933Z,6564
2017-06-22T10:36:42.122Z,6628
2017-06-22T10:39:08.306Z,6404
2017-06-22T10:41:34.461Z,6232
2017-06-22T10:44:00.644Z,6148
2017-06-22T10:46:26.789Z,5948
2017-06-22T10:48:52.990Z,5912
2017-06-22T10:51:10.606Z,5900
2017-06-22T10:53:36.746Z,5788
2017-06-22T10:56:02.909Z,5632
2017-06-22T10:58:30.265Z,5388
2017-06-22T11:00:56.414Z,5396
2017-06-22T11:03:22.495Z,5356
2017-06-22T11:05:48.577Z,5180
2017-06-22T11:08:14.667Z,5188
2017-06-22T11:10:40.718Z,5268
2017-06-22T11:13:08.894Z,5268
2017-06-22T11:15:34.974Z,5224
2017-06-22T11:18:01.075Z,5156
2017-06-22T11:20:27.134Z,5008
2017-06-22T11:22:53.479Z,4592
2017-06-22T11:25:20.876Z,4424
2017-06-22T11:27:46.899Z,4468
2017-06-22T11:30:19.901Z,4460
2017-06-22T11:32:45.918Z,4440
2017-06-22T11:35:18.593Z,4448
2017-06-22T11:37:44.653Z,4312
2017-06-22T11:40:10.675Z,4284
2017-06-22T11:42:36.719Z,4312
2017-06-22T11:45:02.729Z,4168
2017-06-22T11:47:28.738Z,4220
2017-06-22T11:49:55.741Z,4380
2017-06-22T11:52:14.190Z,4460
2017-06-22T11:54:23.062Z,4336
2017-06-22T11:56:50.023Z,4444
2017-06-22T11:59:15.966Z,4368
2017-06-22T12:03:35.765Z,4156
2017-06-22T12:05:53.208Z,4228
2017-06-22T12:08:10.651Z,4016
2017-06-22T12:10:28.074Z,3700
2017-06-22T12:12:45.479Z,3656
2017-06-22T12:15:11.472Z,3496
2017-06-22T12:17:38.514Z,3300
2017-06-22T12:19:55.896Z,3156
2017-06-22T12:22:13.258Z,3104
2017-06-22T12:24:39.138Z,3020
2017-06-22T12:27:05.066Z,3064
2017-06-22T12:29:30.925Z,3112
2017-06-22T12:31:56.830Z,3120
2017-06-22T12:34:22.705Z,3128
2017-06-22T12:36:48.606Z,3160
2017-06-22T12:39:14.416Z,3200
2017-06-22T12:41:40.206Z,3208
2017-06-22T12:44:06.044Z,3192
2017-06-22T12:46:31.854Z,3144
2017-06-22T12:48:57.662Z,3064
2017-06-22T12:51:23.415Z,2920
2017-06-22T12:53:40.633Z,2764
2017-06-22T12:56:08.386Z,2568
2017-06-22T12:58:35.133Z,2352
2017-06-22T13:00:53.337Z,2136
2017-06-22T13:03:19.078Z,1912
2017-06-22T13:05:44.821Z,1692
2017-06-22T13:08:10.524Z,1488
2017-06-22T13:10:36.153Z,1300
2017-06-22T13:12:54.263Z,1136
2017-06-22T13:15:21.897Z,1000
2017-06-22T13:17:47.472Z,888
2017-06-22T13:20:13.065Z,804
2017-06-22T13:22:38.675Z,740
2017-06-22T13:25:06.236Z,692
2017-06-22T13:27:32.743Z,656
2017-06-22T13:29:59.256Z,620
2017-06-22T13:32:24.687Z,584
2017-06-22T13:34:35.548Z,560
2017-06-22T13:37:01.995Z,532
2017-06-22T13:39:43.269Z,504
2017-06-22T13:42:08.670Z,484
2017-06-22T13:44:34.027Z,468
2017-06-22T13:47:00.405Z,460
2017-06-22T13:49:19.273Z,456
2017-06-22T13:51:44.617Z,468
2017-06-22T13:53:55.454Z,488
2017-06-22T13:56:21.877Z,516
2017-06-22T14:00:32.415Z,584
2017-06-22T14:02:49.235Z,624
2017-06-22T14:05:06.059Z,672
2017-06-22T14:07:16.879Z,712
2017-06-22T14:09:43.335Z,768
2017-06-22T14:12:08.753Z,820
2017-06-22T14:14:34.270Z,856
2017-06-22T14:16:59.607Z,892
2017-06-22T14:19:25.494Z,948
2017-06-22T14:21:50.919Z,1020
2017-06-22T14:24:17.632Z,1112
2017-06-22T14:26:42.716Z,1224
2017-06-22T14:29:10.076Z,1336
2017-06-22T14:31:35.541Z,1424
2017-06-22T14:34:01.882Z,1476
2017-06-22T14:36:27.131Z,1524
2017-06-22T14:38:56.290Z,1576
2017-06-22T14:41:23.606Z,1604
2017-06-22T14:44:05.585Z,1628
2017-06-22T14:46:31.312Z,1644
2017-06-22T14:48:57.449Z,1620
2017-06-22T14:51:23.662Z,1588
2017-06-22T14:53:48.690Z,1548
2017-06-22T14:56:15.984Z,1496
2017-06-22T14:58:40.725Z,1464
2017-06-22T15:01:09.469Z,1492
2017-06-22T15:03:35.573Z,1600
2017-06-22T15:06:01.011Z,1756
2017-06-22T15:08:26.397Z,1924
2017-06-22T15:10:51.873Z,2044
2017-06-22T15:13:18.090Z,2116
2017-06-22T15:15:43.526Z,2180
2017-06-22T15:18:09.596Z,2220
2017-06-22T15:20:35.029Z,2260
2017-06-22T15:23:00.420Z,2280
2017-06-22T15:25:25.922Z,2316
2017-06-22T15:27:51.472Z,2344
2017-06-22T15:30:16.960Z,2376
2017-06-22T15:32:42.472Z,2464
2017-06-22T15:35:08.023Z,2584
2017-06-22T15:37:24.961Z,2752
2017-06-22T15:39:50.533Z,2860
2017-06-22T15:42:16.038Z,2924
2017-06-22T15:44:41.577Z,2856
2017-06-22T15:47:07.118Z,2872
2017-06-22T15:49:32.688Z,2936
2017-06-22T15:53:34.861Z,2916
2017-06-22T15:56:00.555Z,2816
2017-06-22T15:58:26.090Z,2752
2017-06-22T16:00:51.691Z,2704
2017-06-22T16:03:02.587Z,2652
2017-06-22T16:05:19.659Z,2576
2017-06-22T16:07:46.270Z,2536
2017-06-22T16:10:03.315Z,2412
2017-06-22T16:12:28.947Z,2228
2017-06-22T16:14:54.609Z,2100
2017-06-22T16:17:20.214Z,1960
2017-06-22T16:19:45.898Z,1864
2017-06-22T16:22:11.501Z,1792
2017-06-22T16:24:37.045Z,1732
2017-06-22T16:27:03.164Z,1676
2017-06-22T16:29:29.341Z,1632
2017-06-22T16:31:54.896Z,1592
2017-06-22T16:34:20.408Z,1588
2017-06-22T16:36:46.794Z,1560
2017-06-22T16:39:12.630Z,1544
2017-06-22T16:41:38.117Z,1552
2017-06-22T16:43:55.091Z,1552
2017-06-22T16:46:12.162Z,1540
2017-06-22T16:48:37.639Z,1528
2017-06-22T16:50:48.019Z,1524
2017-06-22T16:53:13.499Z,1500
2017-06-22T16:55:38.954Z,1460
2017-06-22T16:58:04.363Z,1408
2017-06-22T17:00:29.779Z,1372
2017-06-22T17:02:55.171Z,1344
2017-06-22T17:05:20.542Z,1316
2017-06-22T17:07:45.985Z,1292
2017-06-22T17:10:02.907Z,1276
2017-06-22T17:12:19.772Z,1252
2017-06-22T17:14:45.195Z,1216
2017-06-22T17:17:10.593Z,1172
2017-06-22T17:19:35.978Z,1128
2017-06-22T17:22:01.381Z,1076
2017-06-22T17:26:20.014Z,948
2017-06-22T17:28:45.422Z,872
2017-06-22T17:31:10.856Z,792
2017-06-22T17:33:27.737Z,712
2017-06-22T17:37:54.860Z,556
2017-06-22T17:40:20.275Z,488
2017-06-22T17:42:45.608Z,424
2017-06-22T17:45:11.062Z,364
2017-06-22T17:47:36.445Z,320
2017-06-22T17:50:01.738Z,284
2017-06-22T17:54:29.287Z,248
2017-06-22T17:56:54.615Z,240
2017-06-22T17:59:19.889Z,240
2017-06-22T18:01:45.130Z,248
2017-06-22T18:04:10.463Z,272
2017-06-22T18:06:35.736Z,280
2017-06-22T18:09:01.029Z,348
2017-06-22T18:11:26.231Z,396
2017-06-22T18:13:51.488Z,444
2017-06-22T18:16:16.681Z,488
2017-06-22T18:18:41.927Z,532
2017-06-22T18:21:07.159Z,580
2017-06-22T18:23:32.437Z,612
2017-06-22T18:25:57.674Z,636
2017-06-22T18:28:14.429Z,644
2017-06-22T18:30:39.770Z,644
2017-06-22T18:33:04.951Z,628
2017-06-22T18:35:31.143Z,604
2017-06-22T18:37:56.365Z,568
2017-06-22T18:40:21.642Z,524
2017-06-22T18:42:46.935Z,484
2017-06-22T18:45:13.353Z,456
2017-06-22T18:47:38.479Z,432
2017-06-22T18:50:03.660Z,420
2017-06-22T18:52:28.870Z,400
2017-06-22T18:54:54.144Z,372
2017-06-22T18:57:19.248Z,332
2017-06-22T18:59:44.403Z,284
2017-06-22T19:02:09.589Z,256
2017-06-22T19:04:34.780Z,252
2017-06-22T19:06:42.970Z,256
2017-06-22T19:08:59.643Z,252
2017-06-22T19:11:24.821Z,212
2017-06-22T19:13:41.520Z,168
2017-06-22T19:16:06.697Z,140
2017-06-22T19:18:33.838Z,120
2017-06-22T19:20:59.021Z,104
2017-06-22T19:23:24.131Z,76
2017-06-22T19:25:49.225Z,76
2017-06-22T19:28:07.846Z,64
2017-06-22T19:30:32.995Z,48
2017-06-22T19:32:44.740Z,40
2017-06-22T19:34:55.444Z,32
2017-06-22T19:38:47.881Z,20
2017-06-22T19:41:13.031Z,20
2017-06-22T19:45:39.736Z,12
2017-06-22T19:48:04.845Z,8
2017-06-22T19:50:21.444Z,8
2017-06-22T19:52:46.545Z,8
2017-06-22T19:55:12.617Z,4
2017-06-22T19:57:29.238Z,4
2017-06-22T19:59:45.813Z,0
2017-06-22T20:02:10.971Z,4
2017-06-22T20:04:35.992Z,0
2017-06-22T20:09:02.687Z,0
2017-06-22T20:11:40.593Z,0
2017-06-22T20:14:05.613Z,0
2017-06-22T20:16:22.133Z,0
2017-06-22T20:18:47.226Z,0
2017-06-22T20:21:13.240Z,0
2017-06-22T20:23:38.257Z,0
2017-06-22T20:26:03.229Z,0
2017-06-22T20:28:21.043Z,0
2017-06-22T20:31:01.965Z,0
2017-06-22T20:33:27.998Z,0
2017-06-22T20:35:59.955Z,0
2017-06-22T20:38:40.041Z,0
2017-06-22T20:41:05.182Z,0
2017-06-22T20:43:30.138Z,0
2017-06-22T20:45:55.113Z,0
2017-06-22T20:48:05.933Z,0
2017-06-22T20:50:30.939Z,0
2017-06-22T20:52:55.905Z,0
2017-06-22T20:55:12.407Z,0
2017-06-22T20:57:37.281Z,0
2017-06-22T21:00:00.677Z,0
2017-06-22T21:02:17.178Z,0
2017-06-22T21:04:42.171Z,0
2017-06-22T21:07:07.176Z,0
2017-06-22T21:09:32.200Z,0
2017-06-22T21:11:58.111Z,0
2017-06-22T21:16:25.242Z,0
2017-06-22T21:18:51.211Z,0
2017-06-22T21:21:16.194Z,0
2017-06-22T21:23:41.092Z,0
2017-06-22T21:25:51.760Z,0
2017-06-22T21:28:08.265Z,0
2017-06-22T21:30:33.166Z,0
2017-06-22T21:32:58.081Z,0
2017-06-22T21:35:08.786Z,0
2017-06-22T21:37:33.730Z,0
2017-06-22T21:39:58.662Z,0
2017-06-22T21:42:23.555Z,0
2017-06-22T21:46:50.564Z,0
2017-06-22T21:49:15.462Z,0
2017-06-22T21:51:26.114Z,0
2017-06-22T21:53:51.071Z,0
2017-06-22T21:56:07.469Z,0
2017-06-22T21:58:32.270Z,0
2017-06-22T22:00:57.168Z,0
2017-06-22T22:03:13.588Z,0
2017-06-22T22:05:38.471Z,0
2017-06-22T22:08:03.265Z,0
2017-06-22T22:10:28.063Z,0
2017-06-22T22:12:52.860Z,0
2017-06-22T22:15:00.665Z,0
2017-06-22T22:17:16.995Z,0
2017-06-22T22:19:33.292Z,0
2017-06-22T22:21:49.575Z,0
2017-06-22T22:24:14.365Z,0
2017-06-22T22:26:39.100Z,0
2017-06-22T22:29:03.960Z,0
2017-06-22T22:31:28.757Z,0
2017-06-22T22:33:53.565Z,0
2017-06-22T22:36:18.450Z,0
2017-06-22T22:38:43.259Z,0
2017-06-22T22:41:08.056Z,0
2017-06-22T22:43:32.862Z,0
2017-06-22T22:45:57.782Z,0
2017-06-22T22:48:22.560Z,0
2017-06-22T22:50:47.349Z,0
2017-06-22T22:53:12.141Z,0
2017-06-22T22:55:22.776Z,0
2017-06-22T22:57:47.618Z,0
2017-06-22T23:00:12.414Z,0
2017-06-22T23:02:37.206Z,0
2017-06-22T23:04:53.504Z,0
2017-06-22T23:07:18.194Z,0
2017-06-22T23:09:42.892Z,0
2017-06-22T23:12:07.696Z,0
2017-06-22T23:14:32.487Z,0
2017-06-22T23:16:57.300Z,0
2017-06-22T23:19:22.097Z,0
2017-06-22T23:21:46.890Z,0
2017-06-22T23:24:03.194Z,0
2017-06-22T23:26:27.993Z,0
2017-06-22T23:28:44.298Z,0
2017-06-22T23:30:55.002Z,0
2017-06-22T23:33:19.854Z,0
2017-06-22T23:35:44.645Z,0
2017-06-22T23:38:09.348Z,0
2017-06-22T23:40:34.151Z,0
2017-06-22T23:42:58.852Z,0
2017-06-22T23:45:23.644Z,0
2017-06-22T23:47:34.295Z,0
2017-06-22T23:49:59.000Z,0
2017-06-22T23:52:15.312Z,0
2017-06-22T23:54:40.109Z,0
2017-06-22T23:57:04.898Z,0
2017-06-22T23:59:07.123Z,0
